Time;durP1;ratioP1;P1;durP2;ratioP2;P2;SDS_P1;SDS_P2;PMS_P1;PMS_P2;Temp;Humidity;BMP_temperature;BMP_pressure;BME280_temperature;BME280_humidity;BME280_pressure;Samples;Min_cycle;Max_cycle;Signal;HPM_P1;HPM_P2
2021/04/16 00:01:57;;;;;;;17.67;11.15;;;;;;;18.05;35.50;103027.31;5017163;28;20033;-83
2021/04/16 00:04:23;;;;;;;14.75;10.13;;;;;;;18.04;35.56;103020.13;5033187;28;20060;-82
2021/04/16 00:06:49;;;;;;;12.15;8.95;;;;;;;18.07;35.58;103025.06;5033435;28;20034;-83
2021/04/16 00:09:15;;;;;;;13.40;9.82;;;;;;;18.03;35.46;103021.25;5034806;28;20030;-82
2021/04/16 00:11:41;;;;;;;13.27;10.65;;;;;;;17.98;35.56;103015.84;5033432;28;20060;-83
2021/04/16 00:14:09;;;;;;;15.68;9.80;;;;;;;18.02;35.41;103019.63;5034426;28;20039;-83
2021/04/16 00:16:34;;;;;;;14.20;10.23;;;;;;;18.12;35.08;103027.72;5033096;28;20034;-82
2021/04/16 00:19:00;;;;;;;12.98;9.88;;;;;;;18.09;35.34;103022.00;5034437;28;20036;-83
2021/04/16 00:21:27;;;;;;;13.93;10.02;;;;;;;18.04;35.18;103025.66;5033033;28;20030;-82
2021/04/16 00:23:53;;;;;;;13.98;8.43;;;;;;;17.96;35.43;103024.44;5032773;28;20037;-83
2021/04/16 00:26:18;;;;;;;20.60;11.18;;;;;;;17.84;35.53;103024.16;5017783;28;20634;-82
2021/04/16 00:28:44;;;;;;;16.27;9.85;;;;;;;17.78;35.44;103025.38;5000071;28;20033;-83
2021/04/16 00:31:23;;;;;;;20.70;11.65;;;;;;;17.74;35.44;103019.63;5017212;28;20029;-82
2021/04/16 00:33:49;;;;;;;12.60;10.48;;;;;;;17.75;35.54;103018.50;5005607;28;20427;-82
2021/04/16 00:36:15;;;;;;;16.20;12.20;;;;;;;17.73;35.41;103015.22;5032884;28;20032;-82
2021/04/16 00:38:42;;;;;;;20.63;11.43;;;;;;;17.75;35.46;103012.16;5034120;28;20033;-83
2021/04/16 00:41:10;;;;;;;15.52;11.05;;;;;;;17.72;35.67;103010.00;5032983;28;20477;-82
2021/04/16 00:43:36;;;;;;;21.45;10.73;;;;;;;17.69;35.56;103008.66;5032590;28;20029;-83
2021/04/16 00:46:11;;;;;;;13.95;11.15;;;;;;;17.73;35.64;103009.69;5032573;28;20517;-83
2021/04/16 00:48:58;;;;;;;18.10;12.65;;;;;;;17.77;35.62;103000.81;5033947;28;20489;-82
2021/04/16 00:51:33;;;;;;;16.27;11.80;;;;;;;17.63;35.75;103007.09;5032285;28;20124;-83
2021/04/16 00:54:00;;;;;;;17.27;11.45;;;;;;;17.65;35.58;102999.31;5032627;28;20087;-83
2021/04/16 00:56:28;;;;;;;16.48;11.55;;;;;;;17.57;35.98;102997.28;5032640;28;20026;-82
2021/04/16 00:58:53;;;;;;;21.42;11.90;;;;;;;17.48;35.99;102993.59;5031517;28;20570;-83
2021/04/16 01:01:19;;;;;;;16.38;12.02;;;;;;;17.47;35.86;102992.75;5031606;28;20120;-83
2021/04/16 01:03:45;;;;;;;15.05;12.10;;;;;;;17.43;35.70;102991.72;5030483;28;20413;-83
2021/04/16 01:06:11;;;;;;;16.30;12.73;;;;;;;17.38;35.83;102993.75;5015537;28;20029;-83
2021/04/16 01:08:38;;;;;;;18.50;12.43;;;;;;;17.20;36.02;102993.53;5017306;28;20029;-83
2021/04/16 01:11:06;;;;;;;26.95;13.68;;;;;;;17.14;36.08;102994.72;5016404;28;20025;-83
2021/04/16 01:13:32;;;;;;;17.08;11.52;;;;;;;17.22;35.63;102987.69;5015200;28;20032;-83
2021/04/16 01:16:03;;;;;;;12.25;10.35;;;;;;;17.09;36.10;102989.31;5015901;28;20568;-82
2021/04/16 01:18:34;;;;;;;15.73;9.65;;;;;;;16.99;36.00;102995.00;5015231;28;20039;-82
2021/04/16 01:21:04;;;;;;;12.55;9.55;;;;;;;16.94;35.96;102995.09;5015894;28;20033;-83
2021/04/16 01:24:03;;;;;;;13.43;12.00;;;;;;;16.88;35.84;102990.78;5015689;28;20017;-83
2021/04/16 01:26:37;;;;;;;17.10;9.82;;;;;;;16.96;35.48;102984.56;5015156;28;20112;-83
2021/04/16 01:29:04;;;;;;;13.52;9.90;;;;;;;16.90;35.10;102988.53;5014906;28;20029;-82
2021/04/16 01:31:30;;;;;;;16.58;10.85;;;;;;;16.82;35.04;102986.44;5024579;28;20527;-82
2021/04/16 01:33:56;;;;;;;12.48;9.68;;;;;;;16.76;35.02;102991.22;5033316;28;20030;-82
2021/04/16 01:36:24;;;;;;;10.55;9.40;;;;;;;16.60;34.81;102981.53;5031915;28;20116;-82
2021/04/16 01:38:49;;;;;;;15.35;9.85;;;;;;;16.51;35.07;102986.91;5031596;28;20034;-82
2021/04/16 01:41:17;;;;;;;13.02;10.75;;;;;;;16.45;34.73;102984.50;5031676;28;20068;-83
2021/04/16 01:43:45;;;;;;;12.45;9.57;;;;;;;16.38;34.88;102982.13;5031566;28;20037;-83
2021/04/16 01:48:50;;;;;;;13.05;10.70;;;;;;;16.29;34.55;102981.16;5247171;22;20048;-85
2021/04/16 01:51:25;;;;;;;13.02;10.05;;;;;;;16.30;34.47;102980.03;5038315;28;20094;-84
2021/04/16 01:54:33;;;;;;;13.50;10.77;;;;;;;16.20;34.55;102977.41;5057033;28;20139;-83
2021/04/16 01:57:02;;;;;;;14.07;11.13;;;;;;;16.16;34.70;102979.13;5019325;28;20385;-84
2021/04/16 01:59:32;;;;;;;19.10;12.55;;;;;;;16.18;34.72;102976.91;5033808;28;20055;-85
2021/04/16 02:01:58;;;;;;;21.13;12.25;;;;;;;16.23;34.77;102985.91;5035685;28;20033;-85
2021/04/16 02:04:25;;;;;;;17.70;10.93;;;;;;;16.24;34.63;102981.22;5037991;28;20482;-84
2021/04/16 02:06:51;;;;;;;12.15;9.77;;;;;;;16.13;34.68;102982.47;5037672;28;20040;-84
2021/04/16 02:09:25;;;;;;;17.05;10.80;;;;;;;16.01;34.74;102982.91;5047648;28;20033;-83
2021/04/16 02:11:50;;;;;;;15.82;10.57;;;;;;;16.02;34.65;102974.34;5052614;28;20056;-84
2021/04/16 02:14:19;;;;;;;11.30;10.10;;;;;;;15.90;34.63;102971.19;5051242;28;20056;-84
2021/04/16 02:16:47;;;;;;;12.73;9.07;;;;;;;15.89;34.48;102969.56;5051253;28;20382;-83
2021/04/16 02:19:13;;;;;;;18.05;10.18;;;;;;;15.85;34.60;102976.75;5052585;28;20029;-83
2021/04/16 02:21:40;;;;;;;13.35;9.48;;;;;;;15.85;34.43;102970.44;5052442;28;20021;-84
2021/04/16 02:24:07;;;;;;;13.88;10.30;;;;;;;15.69;34.57;102969.78;5051175;28;20124;-83
2021/04/16 02:26:33;;;;;;;13.25;9.93;;;;;;;15.71;34.55;102967.56;5018403;28;20028;-84
2021/04/16 02:28:59;;;;;;;10.25;9.13;;;;;;;15.61;34.31;102968.50;5051175;28;20112;-84
2021/04/16 02:31:24;;;;;;;14.85;9.80;;;;;;;15.52;34.00;102960.03;5051024;28;20112;-83
2021/04/16 02:33:50;;;;;;;13.40;9.30;;;;;;;15.43;34.25;102964.53;5051202;28;20021;-83
2021/04/16 02:36:16;;;;;;;15.02;11.20;;;;;;;15.43;34.04;102960.97;5051142;28;20029;-83
2021/04/16 02:38:42;;;;;;;16.77;10.10;;;;;;;15.37;34.52;102962.94;5051203;28;20378;-83
2021/04/16 02:41:08;;;;;;;16.90;10.70;;;;;;;15.33;34.73;102961.06;5054422;28;20383;-84
2021/04/16 02:43:33;;;;;;;13.55;10.60;;;;;;;15.27;34.69;102952.88;5050683;28;20180;-84
2021/04/16 02:46:00;;;;;;;14.60;11.65;;;;;;;15.35;34.58;102951.41;5042541;28;20028;-84
2021/04/16 02:48:26;;;;;;;15.07;11.18;;;;;;;15.35;34.85;102954.16;5040774;28;20075;-83
2021/04/16 02:50:52;;;;;;;19.73;12.95;;;;;;;15.27;34.92;102952.06;5042003;28;20045;-83
2021/04/16 02:53:18;;;;;;;14.95;12.43;;;;;;;15.33;34.92;102955.56;5037189;28;20025;-84
2021/04/16 02:55:43;;;;;;;16.15;11.82;;;;;;;15.27;34.91;102941.03;5041517;28;20024;-83
2021/04/16 02:58:10;;;;;;;15.52;11.40;;;;;;;15.27;34.97;102946.53;5049882;28;21493;-84
2021/04/16 03:00:35;;;;;;;14.85;10.20;;;;;;;15.28;34.70;102942.69;5041312;28;20043;-83
2021/04/16 03:03:02;;;;;;;15.65;12.23;;;;;;;15.29;34.88;102949.81;5037959;28;20025;-83
2021/04/16 03:05:27;;;;;;;10.40;8.73;;;;;;;15.23;34.62;102942.72;5044923;28;20031;-83
2021/04/16 03:07:54;;;;;;;12.52;9.50;;;;;;;15.14;34.88;102948.03;5051847;28;21020;-83
2021/04/16 03:10:25;;;;;;;13.00;9.95;;;;;;;15.09;34.69;102948.06;5041275;28;20422;-84
2021/04/16 03:12:51;;;;;;;16.27;10.90;;;;;;;15.05;34.76;102937.97;5040201;28;20031;-83
2021/04/16 03:15:17;;;;;;;13.93;11.48;;;;;;;15.04;34.75;102941.78;5041124;28;20029;-83
2021/04/16 03:17:44;;;;;;;16.05;12.45;;;;;;;14.99;34.66;102937.16;5041651;28;20040;-84
2021/04/16 03:20:10;;;;;;;22.50;11.45;;;;;;;14.89;34.79;102945.53;5059559;28;20107;-84
2021/04/16 03:22:36;;;;;;;15.75;12.60;;;;;;;14.91;35.14;102940.56;5037320;28;20037;-84
2021/04/16 03:25:04;;;;;;;16.02;11.93;;;;;;;14.93;35.00;102943.81;5037774;28;21215;-83
2021/04/16 03:27:29;;;;;;;14.57;12.50;;;;;;;14.93;34.92;102936.38;5023857;28;20041;-84
2021/04/16 03:29:55;;;;;;;15.25;12.57;;;;;;;14.80;34.97;102937.06;5041017;28;20020;-83
2021/04/16 03:32:21;;;;;;;14.75;11.70;;;;;;;14.75;34.83;102939.03;5042106;28;20036;-84
2021/04/16 03:34:46;;;;;;;19.02;12.63;;;;;;;14.76;34.88;102935.19;5041088;28;20502;-83
2021/04/16 03:37:12;;;;;;;13.10;11.15;;;;;;;14.70;34.58;102921.44;5053694;28;20029;-83
2021/04/16 03:39:38;;;;;;;14.18;10.52;;;;;;;14.66;35.11;102936.91;5057285;28;20070;-84
2021/04/16 03:42:04;;;;;;;12.07;10.50;;;;;;;14.63;34.80;102936.66;5057155;28;20106;-83
2021/04/16 03:44:29;;;;;;;13.23;10.80;;;;;;;14.56;34.88;102930.66;5057169;28;20033;-83
2021/04/16 03:46:55;;;;;;;19.33;10.77;;;;;;;14.54;34.86;102933.69;5057100;28;20026;-84
2021/04/16 03:49:20;;;;;;;13.73;11.77;;;;;;;14.52;34.80;102933.16;5056820;28;20040;-83
2021/04/16 03:51:52;;;;;;;15.13;11.82;;;;;;;14.44;34.88;102934.56;5074494;28;20025;-83
2021/04/16 03:54:18;;;;;;;13.48;10.45;;;;;;;14.43;34.93;102932.94;5074772;28;20440;-83
2021/04/16 03:56:44;;;;;;;16.35;11.05;;;;;;;14.36;34.88;102926.94;5057115;28;20081;-83
2021/04/16 03:59:10;;;;;;;13.00;10.63;;;;;;;14.31;34.88;102924.19;5074902;28;20486;-84
2021/04/16 04:01:35;;;;;;;12.95;9.57;;;;;;;14.30;34.98;102925.31;5052016;28;20040;-84
2021/04/16 04:04:01;;;;;;;15.43;12.20;;;;;;;14.18;35.00;102924.81;5036853;28;20113;-83
2021/04/16 04:06:26;;;;;;;13.48;11.48;;;;;;;14.22;34.88;102925.09;5036249;28;20052;-84
2021/04/16 04:08:52;;;;;;;14.45;11.75;;;;;;;14.20;34.75;102930.84;5037542;28;20036;-85
2021/04/16 04:11:17;;;;;;;14.57;12.73;;;;;;;14.18;34.78;102924.81;5039297;28;20028;-83
2021/04/16 04:13:43;;;;;;;15.82;12.80;;;;;;;14.19;34.87;102929.22;5040887;28;20029;-82
2021/04/16 04:16:08;;;;;;;17.40;13.25;;;;;;;14.15;35.07;102930.91;5053280;28;20029;-83
2021/04/16 04:18:34;;;;;;;21.52;14.43;;;;;;;14.05;35.13;102928.19;5053249;28;20035;-84
2021/04/16 04:21:01;;;;;;;23.08;16.05;;;;;;;14.10;35.10;102928.19;5053192;28;20433;-83
2021/04/16 04:23:27;;;;;;;26.35;17.65;;;;;;;13.95;35.10;102937.31;5053258;28;20040;-82
2021/04/16 04:25:53;;;;;;;18.00;12.52;;;;;;;14.01;35.15;102938.13;5053428;28;20115;-83
2021/04/16 04:28:19;;;;;;;21.48;14.85;;;;;;;13.94;35.21;102932.94;5036035;28;20123;-83
2021/04/16 04:30:44;;;;;;;20.20;14.80;;;;;;;13.94;35.21;102940.38;5052548;28;20494;-83
2021/04/16 04:33:10;;;;;;;21.35;15.73;;;;;;;13.87;35.14;102935.16;5053135;28;20028;-83
2021/04/16 04:35:36;;;;;;;17.70;11.95;;;;;;;13.90;35.21;102937.34;5053187;28;20064;-83
2021/04/16 04:38:02;;;;;;;25.75;14.70;;;;;;;13.76;35.29;102933.59;5052922;28;20484;-83
2021/04/16 04:40:28;;;;;;;22.63;14.32;;;;;;;13.71;35.35;102941.84;5052867;28;20121;-84
2021/04/16 04:42:55;;;;;;;18.10;12.98;;;;;;;13.74;35.34;102935.75;5052835;28;20482;-83
2021/04/16 04:45:22;;;;;;;18.80;13.32;;;;;;;13.69;35.19;102931.13;5051080;28;20028;-83
2021/04/16 04:47:48;;;;;;;26.48;14.18;;;;;;;13.60;35.36;102935.53;5039940;28;20448;-83
2021/04/16 04:50:15;;;;;;;21.40;14.35;;;;;;;13.58;35.45;102940.50;5037744;28;20025;-83
2021/04/16 04:52:42;;;;;;;19.10;14.20;;;;;;;13.62;35.34;102940.78;5036868;28;20025;-82
2021/04/16 04:55:12;;;;;;;26.23;14.52;;;;;;;13.52;35.60;102938.88;5058279;28;20509;-82
2021/04/16 04:57:38;;;;;;;16.95;13.43;;;;;;;13.59;35.52;102942.97;5036833;28;20029;-84
2021/04/16 05:00:06;;;;;;;21.52;13.98;;;;;;;13.58;35.41;102940.50;5045224;28;20502;-83
2021/04/16 05:02:32;;;;;;;17.58;15.02;;;;;;;13.63;35.24;102937.75;5037685;28;20036;-83
2021/04/16 05:04:58;;;;;;;18.27;13.65;;;;;;;13.53;35.69;102946.84;5049798;28;20037;-83
2021/04/16 05:07:25;;;;;;;20.63;13.25;;;;;;;13.57;35.49;102945.16;5037792;28;20031;-83
2021/04/16 05:09:50;;;;;;;23.20;13.98;;;;;;;13.55;35.54;102950.13;5035765;28;20430;-84
2021/04/16 05:12:16;;;;;;;20.00;15.20;;;;;;;13.57;35.57;102952.59;5035407;28;20025;-84
2021/04/16 05:14:41;;;;;;;27.27;14.63;;;;;;;13.59;35.63;102950.38;5037556;28;20847;-83
2021/04/16 05:17:07;;;;;;;27.52;16.63;;;;;;;13.53;35.77;102951.53;5035923;28;20024;-83
2021/04/16 05:19:33;;;;;;;18.98;15.23;;;;;;;13.60;35.69;102946.53;5050908;28;20028;-84
2021/04/16 05:22:01;;;;;;;22.65;16.67;;;;;;;13.68;35.80;102954.22;5033986;28;20032;-83
2021/04/16 05:24:31;;;;;;;27.90;18.15;;;;;;;13.65;35.92;102957.50;5050160;28;20089;-83
2021/04/16 05:26:57;;;;;;;23.27;14.90;;;;;;;13.72;36.07;102955.28;5053012;28;20025;-84
2021/04/16 05:29:22;;;;;;;20.25;14.85;;;;;;;13.68;35.90;102956.13;5035338;28;20130;-82
2021/04/16 05:31:48;;;;;;;28.75;17.52;;;;;;;13.74;35.84;102953.06;5061625;28;20402;-83
2021/04/16 05:34:13;;;;;;;24.05;15.80;;;;;;;13.80;35.69;102956.63;5055026;28;20036;-83
2021/04/16 05:36:39;;;;;;;22.98;15.88;;;;;;;13.72;35.70;102955.28;5055000;28;20069;-84
2021/04/16 05:39:04;;;;;;;24.15;14.98;;;;;;;13.72;35.82;102948.97;5072974;28;20032;-83
2021/04/16 05:41:30;;;;;;;23.10;14.75;;;;;;;13.81;35.81;102955.53;5038405;28;20037;-82
2021/04/16 05:43:56;;;;;;;26.20;14.18;;;;;;;13.88;35.47;102961.53;5049992;28;20124;-83
2021/04/16 05:46:21;;;;;;;18.30;13.32;;;;;;;13.86;35.67;102959.09;5034607;28;20025;-82
2021/04/16 05:48:47;;;;;;;21.95;13.75;;;;;;;13.76;35.56;102959.13;5034862;28;20092;-82
2021/04/16 05:51:12;;;;;;;17.05;12.02;;;;;;;13.81;35.59;102956.34;5034904;28;20032;-83
2021/04/16 05:53:38;;;;;;;20.02;13.75;;;;;;;13.75;35.77;102954.75;5034846;28;20024;-83
2021/04/16 05:56:05;;;;;;;17.15;13.00;;;;;;;13.89;35.48;102954.94;5035000;28;20029;-82
2021/04/16 05:58:31;;;;;;;18.50;13.93;;;;;;;13.91;35.74;102960.19;5018641;28;20033;-82
2021/04/16 06:00:56;;;;;;;17.45;12.98;;;;;;;13.98;35.82;102963.41;5034973;28;20104;-82
2021/04/16 06:03:22;;;;;;;22.60;14.52;;;;;;;14.08;35.55;102964.19;5036776;28;20058;-83
2021/04/16 06:05:47;;;;;;;27.23;15.00;;;;;;;14.04;35.83;102957.63;5021195;28;20052;-82
2021/04/16 06:08:17;;;;;;;23.52;14.40;;;;;;;14.28;35.63;102960.53;5021957;28;20116;-84
2021/04/16 06:10:43;;;;;;;19.25;13.13;;;;;;;14.41;35.64;102970.06;5020041;28;20112;-83
2021/04/16 06:13:08;;;;;;;24.65;14.25;;;;;;;14.38;35.74;102974.22;5033978;28;20039;-83
2021/04/16 06:15:34;;;;;;;19.55;15.15;;;;;;;14.53;35.48;102976.06;5044525;28;20032;-83
2021/04/16 06:17:59;;;;;;;25.08;14.52;;;;;;;14.56;35.82;102969.16;5033680;28;20017;-82
2021/04/16 06:20:26;;;;;;;28.23;17.55;;;;;;;14.60;35.88;102970.25;5033318;28;20028;-83
2021/04/16 06:22:54;;;;;;;25.58;14.20;;;;;;;14.89;35.69;102965.63;5037066;28;20032;-83
2021/04/16 06:25:23;;;;;;;22.92;14.77;;;;;;;14.95;35.93;102966.38;5036982;28;20028;-83
2021/04/16 06:27:49;;;;;;;16.98;12.65;;;;;;;15.13;35.49;102973.13;5037000;28;20017;-83
2021/04/16 06:30:17;;;;;;;19.27;13.00;;;;;;;15.21;35.53;102962.28;5036887;28;20085;-84
2021/04/16 06:32:43;;;;;;;21.77;13.52;;;;;;;15.18;35.65;102976.63;5037440;28;20039;-83
2021/04/16 06:35:14;;;;;;;23.42;13.63;;;;;;;15.33;35.63;102981.16;5021104;28;20702;-84
2021/04/16 06:37:40;;;;;;;21.30;14.05;;;;;;;15.48;35.68;102974.69;5034198;28;20368;-83
2021/04/16 06:40:07;;;;;;;20.65;13.73;;;;;;;15.67;35.40;102978.38;5036498;28;20024;-84
2021/04/16 06:42:33;;;;;;;24.45;13.73;;;;;;;15.61;35.90;102973.16;5037442;28;20044;-82
2021/04/16 06:45:05;;;;;;;27.05;14.07;;;;;;;15.71;35.87;102973.06;5037695;28;20523;-82
2021/04/16 06:47:33;;;;;;;29.52;14.57;;;;;;;15.81;35.65;102982.06;5017255;28;20407;-82
2021/04/16 06:50:00;;;;;;;28.13;13.25;;;;;;;16.00;35.57;102984.03;5036238;28;20035;-81
2021/04/16 06:52:32;;;;;;;20.65;13.07;;;;;;;16.16;35.38;102987.41;5017688;28;20108;-80
2021/04/16 06:55:39;;;;;;;17.58;11.10;;;;;;;16.23;35.27;102987.84;5026987;28;20091;-81
2021/04/16 06:58:17;;;;;;;19.95;11.65;;;;;;;16.42;35.31;102988.69;5021621;28;20091;-82
2021/04/16 07:01:04;;;;;;;16.40;11.68;;;;;;;16.34;35.35;102983.84;5031806;28;20514;-80
2021/04/16 07:03:38;;;;;;;21.48;12.10;;;;;;;16.58;35.09;102981.81;5031045;28;20368;-81
2021/04/16 07:06:15;;;;;;;20.83;11.82;;;;;;;16.65;35.19;102978.69;5032311;28;20029;-80
2021/04/16 07:08:45;;;;;;;25.15;12.25;;;;;;;16.95;34.64;102980.16;5032160;28;20083;-81
2021/04/16 07:11:50;;;;;;;23.90;10.98;;;;;;;17.04;34.49;102983.06;5032389;28;20052;-82
2021/04/16 07:14:41;;;;;;;18.42;10.02;;;;;;;17.26;34.29;102988.72;5031939;28;20479;-82
2021/04/16 07:17:10;;;;;;;25.23;11.43;;;;;;;17.49;34.20;102981.41;5029953;28;20080;-82
2021/04/16 07:19:36;;;;;;;21.65;9.82;;;;;;;17.73;33.87;102976.50;5014829;28;20103;-85
2021/04/16 07:22:05;;;;;;;24.63;9.98;;;;;;;17.88;33.77;102991.16;5030768;28;20052;-83
2021/04/16 07:24:32;;;;;;;14.40;7.60;;;;;;;18.04;33.67;102986.94;5030916;28;20509;-82
2021/04/16 07:27:11;;;;;;;15.32;7.30;;;;;;;18.20;33.49;102988.25;5032067;28;20033;-83
2021/04/16 07:29:42;;;;;;;21.15;7.72;;;;;;;18.48;32.82;102985.41;5035317;28;20025;-83
2021/04/16 07:32:28;;;;;;;19.52;6.93;;;;;;;18.57;32.11;102983.53;5038849;28;20116;-83
2021/04/16 07:34:56;;;;;;;11.05;5.25;;;;;;;18.83;32.04;102989.31;5034080;28;20025;-83
2021/04/16 07:37:39;;;;;;;25.75;6.50;;;;;;;18.78;31.37;102995.78;5034105;28;20047;-83
2021/04/16 07:40:22;;;;;;;19.67;6.93;;;;;;;19.15;31.02;102991.00;5018970;28;20041;-83
2021/04/16 07:42:50;;;;;;;19.27;6.45;;;;;;;19.12;31.36;102991.63;5020354;28;20276;-83
2021/04/16 07:45:24;;;;;;;15.43;6.85;;;;;;;19.39;31.05;102988.66;5026915;28;20030;-83
2021/04/16 07:47:53;;;;;;;9.85;5.35;;;;;;;19.55;30.23;102993.78;5034049;28;20053;-83
2021/04/16 07:50:32;;;;;;;10.00;6.47;;;;;;;19.76;30.30;102999.63;5033463;28;20116;-82
2021/04/16 07:52:58;;;;;;;10.77;6.07;;;;;;;19.88;29.92;102997.06;5034170;28;20033;-80
2021/04/16 07:55:33;;;;;;;15.85;6.55;;;;;;;20.01;29.64;102998.88;5035108;28;20125;-82
2021/04/16 07:58:07;;;;;;;12.38;6.32;;;;;;;20.22;28.87;102999.09;5033752;28;20033;-82
2021/04/16 08:00:36;;;;;;;14.85;6.55;;;;;;;20.38;29.24;103004.97;5033620;28;20053;-82
2021/04/16 08:03:13;;;;;;;14.20;5.43;;;;;;;20.46;27.32;102993.09;5034765;28;20475;-83
2021/04/16 08:05:57;;;;;;;19.13;6.93;;;;;;;20.57;27.12;103002.75;5033592;28;20112;-82
2021/04/16 08:08:29;;;;;;;11.00;5.63;;;;;;;20.80;27.17;103011.72;5034861;28;20033;-83
2021/04/16 08:11:04;;;;;;;9.35;5.47;;;;;;;20.80;26.15;103011.72;5033531;28;20033;-83
2021/04/16 08:13:50;;;;;;;15.18;5.93;;;;;;;20.78;25.98;103002.88;5033453;28;20506;-83
2021/04/16 08:16:19;;;;;;;12.88;5.28;;;;;;;21.14;26.24;103010.03;5033250;28;20064;-83
2021/04/16 08:18:48;;;;;;;10.00;5.93;;;;;;;21.17;26.09;103001.84;5032834;28;20033;-83
2021/04/16 08:21:18;;;;;;;9.80;6.32;;;;;;;21.29;26.33;103002.00;5033395;28;20033;-84
2021/04/16 08:24:05;;;;;;;9.65;5.25;;;;;;;21.27;25.39;103004.31;5034458;28;20041;-82
2021/04/16 08:26:36;;;;;;;8.27;5.22;;;;;;;21.41;25.97;103000.50;5032912;28;20025;-83
2021/04/16 08:29:12;;;;;;;10.57;5.95;;;;;;;21.32;25.50;102995.78;5034628;28;20025;-83
2021/04/16 08:32:21;;;;;;;9.07;5.10;;;;;;;21.37;25.27;103003.13;5033104;28;20048;-82
2021/04/16 08:34:51;;;;;;;8.32;4.90;;;;;;;;;;5024859;28;20495;-83
2021/04/16 08:37:29;;;;;;;11.93;4.05;;;;;;;21.21;25.02;102996.44;5032791;28;20029;-83
2021/04/16 08:39:56;;;;;;;5.40;3.90;;;;;;;21.29;24.90;102993.66;5032969;28;20048;-82
2021/04/16 08:42:29;;;;;;;9.00;4.00;;;;;;;21.21;24.63;102993.66;5033071;28;20021;-82
2021/04/16 08:45:04;;;;;;;8.95;4.70;;;;;;;21.21;24.99;102990.88;5032659;28;20049;-81
2021/04/16 08:47:36;;;;;;;7.03;4.40;;;;;;;21.23;24.29;102989.38;5032522;28;20103;-84
2021/04/16 08:50:04;;;;;;;9.23;4.65;;;;;;;21.54;24.60;102991.97;5032318;28;20037;-82
2021/04/16 08:52:50;;;;;;;10.65;5.47;;;;;;;21.52;24.53;102983.09;5033873;28;20030;-83
2021/04/16 08:55:23;;;;;;;21.80;5.78;;;;;;;21.60;24.90;102976.69;5032657;28;20033;-83
2021/04/16 08:58:00;;;;;;;12.77;6.25;;;;;;;21.81;24.52;102989.84;5032427;28;20025;-83
2021/04/16 09:00:37;;;;;;;11.45;5.78;;;;;;;21.73;24.46;102976.78;5033899;28;20025;-83
2021/04/16 09:03:12;;;;;;;8.68;4.45;;;;;;;21.83;24.33;102982.78;5032378;28;20048;-84
2021/04/16 09:05:59;;;;;;;10.43;5.35;;;;;;;21.89;23.65;102981.44;5033589;28;20056;-83
2021/04/16 09:08:45;;;;;;;10.32;4.72;;;;;;;21.95;23.84;102987.66;5032392;28;20112;-84
2021/04/16 09:11:12;;;;;;;12.90;4.70;;;;;;;22.12;23.92;102979.19;5033594;28;20032;-82
2021/04/16 09:13:41;;;;;;;40.53;7.13;;;;;;;22.17;23.72;102980.97;5033447;28;20041;-83
2021/04/16 09:16:15;;;;;;;8.93;5.03;;;;;;;22.39;23.14;102989.00;5032325;28;20483;-82
2021/04/16 09:18:42;;;;;;;6.43;4.28;;;;;;;22.42;23.41;102981.94;5031958;28;20032;-83
2021/04/16 09:21:26;;;;;;;10.05;4.22;;;;;;;22.59;23.33;102986.53;5030969;28;20483;-84
2021/04/16 09:24:04;;;;;;;6.22;4.00;;;;;;;22.84;23.25;102971.56;5031762;28;20061;-82
2021/04/16 09:26:47;;;;;;;7.70;4.20;;;;;;;22.76;22.91;102982.81;5033244;28;20068;-82
2021/04/16 09:29:28;;;;;;;7.63;3.90;;;;;;;22.34;23.15;102977.25;5031940;28;20075;-82
2021/04/16 09:31:59;;;;;;;8.75;4.22;;;;;;;22.82;22.86;102973.03;5031902;28;20029;-83
2021/04/16 09:34:48;;;;;;;10.55;4.38;;;;;;;22.62;22.72;102975.53;5032986;28;20026;-83
2021/04/16 09:37:30;;;;;;;17.90;5.95;;;;;;;22.85;22.73;102967.66;5033145;28;20044;-83
2021/04/16 09:40:18;;;;;;;9.10;4.38;;;;;;;22.97;21.98;102969.66;5031837;28;20117;-84
2021/04/16 09:42:46;;;;;;;10.68;4.55;;;;;;;23.10;22.45;102957.38;5033099;28;20475;-84
2021/04/16 09:45:30;;;;;;;15.30;5.45;;;;;;;23.23;22.16;102961.81;5031657;28;20025;-84
2021/04/16 09:48:06;;;;;;;7.22;4.72;;;;;;;23.24;22.28;102959.84;5039928;28;20045;-81
2021/04/16 09:50:36;;;;;;;29.95;6.55;;;;;;;23.28;22.37;102952.41;5034568;28;20029;-82
2021/04/16 09:53:17;;;;;;;;;;;;;;;23.06;22.48;102955.63;5035535;28;20487;-82
2021/04/16 09:55:58;;;;;;;7.25;4.35;;;;;;;23.19;22.17;102955.28;5052857;28;19964;-81
2021/04/16 09:58:29;;;;;;;8.23;4.13;;;;;;;23.19;22.26;102952.50;5052789;28;20025;-82
2021/04/16 10:00:54;;;;;;;9.70;4.25;;;;;;;23.39;22.04;102950.78;5034971;28;20028;-80
2021/04/16 10:03:26;;;;;;;5.70;3.90;;;;;;;23.53;22.13;102942.06;5052759;28;20025;-79
2021/04/16 10:05:53;;;;;;;9.68;4.82;;;;;;;23.48;21.85;102953.47;5034748;28;20116;-79
2021/04/16 10:08:28;;;;;;;7.22;4.63;;;;;;;23.61;22.05;102932.81;5034932;28;20040;-79
2021/04/16 10:11:02;;;;;;;8.60;4.60;;;;;;;23.93;21.86;102938.59;5052736;28;20037;-78
2021/04/16 10:13:36;;;;;;;8.45;5.10;;;;;;;23.96;22.65;102937.91;5034766;28;20077;-80
2021/04/16 10:16:17;;;;;;;10.98;4.47;;;;;;;23.84;21.66;102935.13;5052653;28;20029;-79
2021/04/16 10:18:42;;;;;;;5.10;3.88;;;;;;;24.13;21.65;102928.44;5034499;28;20403;-79
2021/04/16 10:21:14;;;;;;;17.25;4.03;;;;;;;24.10;21.20;102921.53;5052596;28;20036;-79
2021/04/16 10:23:49;;;;;;;11.88;3.90;;;;;;;24.35;21.04;102919.53;5034566;28;20397;-79
2021/04/16 10:35:51;;;;;;;11.52;7.22;;;;;;;23.45;25.41;102915.13;5050923;28;20112;-79
2021/04/16 11:23:01;;;;;;;16.75;7.28;;;;;;;22.70;29.19;102906.94;5055370;28;20401;-78
2021/04/16 12:38:12;;;;;;;10.30;5.10;;;;;;;23.04;29.53;102857.56;5054418;28;20391;-78
2021/04/16 12:40:38;;;;;;;14.23;5.07;;;;;;;23.21;29.87;102865.72;5036294;28;20574;-79
2021/04/16 12:43:05;;;;;;;9.35;5.45;;;;;;;23.25;28.81;102866.63;5035623;28;20052;-78
2021/04/16 12:45:31;;;;;;;8.77;5.20;;;;;;;23.00;29.59;102876.97;5053210;28;20032;-80
2021/04/16 12:47:58;;;;;;;19.75;8.02;;;;;;;23.24;29.23;102871.41;5034942;28;20415;-79
2021/04/16 12:50:28;;;;;;;10.18;4.65;;;;;;;23.46;28.91;102866.53;5052988;28;20486;-80
2021/04/16 12:52:54;;;;;;;14.48;5.75;;;;;;;23.41;28.73;102863.94;5035575;28;20095;-80
2021/04/16 12:55:21;;;;;;;6.45;4.38;;;;;;;23.13;29.21;102863.88;5053298;28;20025;-80
2021/04/16 12:57:50;;;;;;;12.18;6.72;;;;;;;23.45;28.63;102867.69;5053159;28;20029;-81
2021/04/16 13:00:35;;;;;;;15.50;9.82;;;;;;;23.42;27.25;102865.56;5035317;28;20036;-82
2021/04/16 13:03:06;;;;;;;23.70;16.00;;;;;;;23.82;26.93;102868.47;5049693;28;20063;-80
2021/04/16 13:05:33;;;;;;;34.20;25.55;;;;;;;24.00;26.50;102877.38;5035484;28;20239;-80
2021/04/16 13:07:59;;;;;;;49.95;30.60;;;;;;;24.01;27.21;102865.84;5042672;28;20025;-81
2021/04/16 13:10:26;;;;;;;10.23;5.18;;;;;;;24.06;28.02;102870.38;5038993;28;20462;-75
2021/04/16 13:12:51;;;;;;;10.02;5.07;;;;;;;23.56;28.97;102857.66;5054988;28;20440;-81
2021/04/16 13:15:20;;;;;;;11.25;4.93;;;;;;;23.49;29.40;102868.59;5034646;28;20147;-81
2021/04/16 13:17:52;;;;;;;15.30;6.63;;;;;;;23.58;29.53;102865.69;5038055;28;20043;-81
2021/04/16 13:20:20;;;;;;;18.98;5.72;;;;;;;23.65;28.06;102838.84;5053869;28;20505;-81
2021/04/16 13:22:45;;;;;;;12.07;5.25;;;;;;;23.34;27.70;102867.31;5056720;28;20043;-81
2021/04/16 13:25:14;;;;;;;7.90;4.82;;;;;;;23.61;26.83;102865.03;5049412;28;20029;-81
2021/04/16 13:27:40;;;;;;;14.30;5.15;;;;;;;23.56;27.07;102863.25;5052336;28;20025;-81
2021/04/16 13:30:08;;;;;;;13.43;5.97;;;;;;;23.92;26.40;102862.38;5051062;28;20036;-82
2021/04/16 13:32:40;;;;;;;14.30;5.75;;;;;;;23.66;27.10;102868.41;5045335;28;20048;-81
2021/04/16 13:35:07;;;;;;;12.70;5.18;;;;;;;23.79;26.93;102871.94;5040145;28;20664;-80
2021/04/16 13:37:32;;;;;;;15.27;5.55;;;;;;;23.56;27.16;102868.81;5051345;28;20032;-79